createdAt,value
2022-09-20T00:01:33.373Z,8.35
2022-09-20T00:04:05.753Z,8.21
2022-09-20T00:06:35.251Z,8.27
2022-09-20T00:09:04.840Z,8.18
2022-09-20T00:11:35.548Z,8.29
2022-09-20T00:14:06.561Z,8.20
2022-09-20T00:16:40.316Z,8.21
2022-09-20T00:19:10.093Z,8.18
2022-09-20T00:21:38.463Z,8.12
2022-09-20T00:24:07.664Z,8.08
2022-09-20T00:26:36.632Z,8.13
2022-09-20T00:29:06.171Z,8.12
2022-09-20T00:31:37.341Z,7.92
2022-09-20T00:34:23.310Z,8.12
2022-09-20T00:36:52.039Z,8.10
2022-09-20T00:39:20.476Z,8.09
2022-09-20T00:41:48.838Z,8.10
2022-09-20T00:44:52.553Z,8.06
2022-09-20T00:47:27.711Z,8.03
2022-09-20T00:50:01.561Z,8.06
2022-09-20T00:52:31.430Z,8.06
2022-09-20T00:55:01.933Z,8.09
2022-09-20T00:57:35.705Z,8.11
2022-09-20T01:00:05.461Z,8.01
2022-09-20T01:02:38.883Z,8.11
2022-09-20T01:05:11.189Z,7.98
2022-09-20T01:07:40.272Z,8.10
2022-09-20T01:10:09.140Z,8.13
2022-09-20T01:12:40.877Z,8.05
2022-09-20T01:15:11.374Z,8.14
2022-09-20T01:17:44.641Z,8.13
2022-09-20T01:20:20.713Z,8.13
2022-09-20T01:23:24.022Z,8.13
2022-09-20T01:26:23.630Z,8.13
2022-09-20T01:29:02.438Z,8.12
2022-09-20T01:31:35.616Z,8.19
2022-09-20T01:34:08.824Z,7.46
2022-09-20T01:36:45.364Z,8.07
2022-09-20T01:39:20.332Z,8.25
2022-09-20T01:41:55.536Z,8.27
2022-09-20T01:44:32.472Z,8.22
2022-09-20T01:47:07.200Z,8.21
2022-09-20T01:49:47.185Z,8.18
2022-09-20T01:52:56.393Z,7.98
2022-09-20T01:55:59.455Z,8.08
2022-09-20T01:59:24.747Z,8.06
2022-09-20T02:02:10.245Z,8.03
2022-09-20T02:05:14.919Z,8.03
2022-09-20T02:07:56.141Z,7.83
2022-09-20T02:10:40.297Z,7.82
2022-09-20T02:13:12.931Z,7.87
2022-09-20T02:16:16.896Z,7.88
2022-09-20T02:19:10.947Z,7.95
2022-09-20T02:21:46.622Z,7.94
2022-09-20T02:24:24.708Z,7.80
2022-09-20T02:27:08.666Z,7.63
2022-09-20T02:29:48.194Z,7.80
2022-09-20T02:32:31.919Z,7.92
2022-09-20T02:35:34.193Z,7.91
2022-09-20T02:38:13.202Z,7.62
2022-09-20T02:41:10.976Z,7.97
2022-09-20T02:43:46.575Z,8.04
2022-09-20T02:46:22.681Z,8.14
2022-09-20T02:49:00.359Z,8.03
2022-09-20T02:51:37.556Z,8.00
2022-09-20T02:54:19.228Z,7.92
2022-09-20T02:56:57.769Z,7.79
2022-09-20T02:59:37.108Z,7.78
2022-09-20T03:02:19.845Z,7.85
2022-09-20T03:04:58.859Z,7.75
2022-09-20T03:07:36.098Z,7.61
2022-09-20T03:10:17.566Z,7.73
2022-09-20T03:12:58.187Z,7.77
2022-09-20T03:15:35.442Z,7.79
2022-09-20T03:18:12.637Z,7.78
2022-09-20T03:20:51.816Z,7.52
2022-09-20T03:23:37.419Z,7.83
2022-09-20T03:26:16.950Z,7.86
2022-09-20T03:29:02.525Z,7.85
2022-09-20T03:31:53.097Z,7.89
2022-09-20T03:34:37.383Z,7.86
2022-09-20T03:37:21.911Z,7.73
2022-09-20T03:40:13.280Z,7.93
2022-09-20T03:42:49.972Z,7.54
2022-09-20T03:45:42.692Z,7.97
2022-09-20T03:48:29.843Z,7.97
2022-09-20T03:51:21.537Z,7.73
2022-09-20T03:54:36.832Z,7.96
2022-09-20T03:57:53.487Z,7.97
2022-09-20T04:00:26.166Z,8.00
2022-09-20T04:03:05.637Z,7.94
2022-09-20T04:05:47.038Z,8.10
2022-09-20T04:08:31.627Z,8.12
2022-09-20T04:11:09.000Z,8.12
2022-09-20T04:13:41.411Z,8.15
2022-09-20T04:16:23.981Z,8.19
2022-09-20T04:18:58.452Z,8.16
2022-09-20T04:21:33.469Z,8.02
2022-09-20T04:24:11.847Z,8.04
2022-09-20T04:26:46.557Z,7.64
2022-09-20T04:29:34.609Z,8.04
2022-09-20T04:32:11.633Z,7.96
2022-09-20T04:35:03.548Z,8.05
2022-09-20T04:37:34.618Z,8.05
2022-09-20T04:40:16.358Z,8.06
2022-09-20T04:43:24.479Z,8.09
2022-09-20T04:46:21.495Z,8.13
2022-09-20T04:49:29.827Z,8.11
2022-09-20T04:52:40.231Z,8.09
2022-09-20T04:55:37.412Z,8.05
2022-09-20T04:58:47.130Z,8.16
2022-09-20T05:01:49.592Z,8.20
2022-09-20T05:04:57.891Z,8.17
2022-09-20T05:08:17.368Z,8.13
2022-09-20T05:11:27.844Z,8.05
2022-09-20T05:14:13.003Z,8.17
2022-09-20T05:16:59.274Z,8.11
2022-09-20T05:19:35.719Z,8.05
2022-09-20T05:22:42.307Z,8.04
2022-09-20T05:25:35.094Z,8.04
2022-09-20T05:28:11.731Z,7.98
2022-09-20T05:30:47.446Z,7.99
2022-09-20T05:33:26.078Z,7.95
2022-09-20T05:36:06.619Z,7.90
2022-09-20T05:38:47.441Z,7.87
2022-09-20T05:41:25.120Z,7.90
2022-09-20T05:44:02.831Z,7.92
2022-09-20T05:46:38.260Z,7.91
2022-09-20T05:49:23.840Z,7.63
2022-09-20T05:52:08.866Z,7.94
2022-09-20T05:55:02.399Z,7.97
2022-09-20T05:57:48.119Z,7.96
2022-09-20T06:00:19.832Z,8.00
2022-09-20T06:02:56.264Z,8.05
2022-09-20T06:05:44.091Z,8.13
2022-09-20T06:08:53.055Z,8.17
2022-09-20T06:11:48.009Z,8.07
2022-09-20T06:14:39.576Z,8.14
2022-09-20T06:17:19.103Z,8.18
2022-09-20T06:19:54.237Z,8.15
2022-09-20T06:22:29.799Z,8.15
2022-09-20T06:25:04.534Z,8.06
2022-09-20T06:27:39.420Z,8.17
2022-09-20T06:30:16.140Z,8.07
2022-09-20T06:32:56.096Z,8.02
2022-09-20T06:35:27.644Z,8.22
2022-09-20T06:38:25.500Z,8.23
2022-09-20T06:41:11.441Z,8.23
2022-09-20T06:43:40.639Z,8.25
2022-09-20T06:46:10.769Z,8.26
2022-09-20T06:48:40.112Z,8.27
2022-09-20T06:51:09.514Z,8.32
2022-09-20T06:53:42.863Z,8.35
2022-09-20T06:56:17.227Z,8.18
2022-09-20T06:58:45.887Z,8.48
2022-09-20T07:01:15.106Z,8.50
2022-09-20T07:03:46.169Z,8.51
2022-09-20T07:06:19.954Z,8.32
2022-09-20T07:08:49.421Z,8.39
2022-09-20T07:11:18.980Z,8.44
2022-09-20T07:13:52.287Z,8.52
2022-09-20T07:16:21.130Z,8.47
2022-09-20T07:18:50.176Z,8.48
2022-09-20T07:21:20.428Z,8.49
2022-09-20T07:23:51.451Z,8.50
2022-09-20T07:26:22.126Z,8.23
2022-09-20T07:28:50.973Z,8.62
2022-09-20T07:31:19.943Z,8.09
2022-09-20T07:33:48.454Z,8.33
2022-09-20T07:36:17.706Z,8.51
2022-09-20T07:38:50.606Z,8.77
2022-09-20T07:41:19.958Z,8.82
2022-09-20T07:43:48.387Z,8.83
2022-09-20T07:46:16.752Z,8.84
2022-09-20T07:48:45.179Z,8.92
2022-09-20T07:51:15.030Z,8.98
2022-09-20T07:53:43.819Z,9.01
2022-09-20T07:56:18.525Z,9.02
2022-09-20T07:58:52.170Z,9.05
2022-09-20T08:01:23.256Z,9.15
2022-09-20T08:03:52.288Z,9.16
2022-09-20T08:06:21.543Z,9.20
2022-09-20T08:08:51.755Z,9.24
2022-09-20T08:11:27.748Z,9.34
2022-09-20T08:14:12.840Z,9.44
2022-09-20T08:16:43.514Z,9.59
2022-09-20T08:19:17.464Z,9.68
2022-09-20T08:21:46.045Z,9.60
2022-09-20T08:24:16.543Z,9.39
2022-09-20T08:26:46.613Z,9.54
2022-09-20T08:29:15.411Z,8.73
2022-09-20T08:31:44.690Z,9.27
2022-09-20T08:34:15.285Z,8.94
2022-09-20T08:36:47.018Z,9.14
2022-09-20T08:42:14.667Z,9.36
2022-09-20T08:45:00.461Z,9.25
2022-09-20T08:47:31.747Z,9.67
2022-09-20T08:50:09.041Z,9.81
2022-09-20T08:52:40.903Z,9.88
2022-09-20T08:55:17.994Z,9.90
2022-09-20T08:57:50.590Z,9.92
2022-09-20T09:00:21.099Z,9.93
2022-09-20T09:02:53.587Z,9.93
2022-09-20T09:05:32.879Z,9.89
2022-09-20T09:08:05.039Z,9.80
2022-09-20T09:10:45.914Z,10.02
2022-09-20T09:13:25.001Z,9.80
2022-09-20T09:15:58.308Z,9.85
2022-09-20T09:18:34.953Z,9.72
2022-09-20T09:21:05.528Z,9.68
2022-09-20T09:23:42.750Z,9.63
2022-09-20T09:26:19.875Z,9.72
2022-09-20T09:29:10.049Z,9.76
2022-09-20T09:31:39.883Z,9.96
2022-09-20T09:34:26.029Z,9.94
2022-09-20T09:36:55.715Z,9.92
2022-09-20T09:39:29.632Z,10.06
2022-09-20T09:42:01.308Z,10.10
2022-09-20T09:44:34.073Z,10.01
2022-09-20T09:47:02.681Z,10.14
2022-09-20T09:49:36.577Z,10.07
2022-09-20T09:52:13.793Z,10.28
2022-09-20T09:54:47.133Z,10.27
2022-09-20T09:57:32.104Z,10.30
2022-09-20T10:00:18.132Z,10.35
2022-09-20T10:03:09.037Z,10.42
2022-09-20T10:05:44.247Z,10.49
2022-09-20T10:08:25.397Z,10.62
2022-09-20T10:11:09.344Z,10.50
2022-09-20T10:13:45.884Z,10.58
2022-09-20T10:16:29.283Z,10.61
2022-09-20T10:19:08.424Z,10.56
2022-09-20T10:21:49.071Z,10.61
2022-09-20T10:24:30.769Z,10.61
2022-09-20T10:27:20.406Z,10.48
2022-09-20T10:30:01.789Z,10.45
2022-09-20T10:32:46.898Z,10.48
2022-09-20T10:35:26.223Z,10.41
2022-09-20T10:38:14.690Z,10.81
2022-09-20T10:41:21.784Z,10.66
2022-09-20T10:44:05.085Z,11.08
2022-09-20T10:46:47.003Z,10.93
2022-09-20T10:49:28.478Z,10.91
2022-09-20T10:52:17.795Z,10.90
2022-09-20T10:55:05.396Z,10.87
2022-09-20T10:57:57.051Z,10.70
2022-09-20T11:00:27.652Z,10.75
2022-09-20T11:03:10.520Z,10.94
2022-09-20T11:05:48.735Z,11.11
2022-09-20T11:08:22.954Z,11.28
2022-09-20T11:10:55.578Z,11.48
2022-09-20T11:13:31.704Z,11.53
2022-09-20T11:16:07.092Z,11.60
2022-09-20T11:18:40.883Z,11.62
2022-09-20T11:21:16.735Z,11.50
2022-09-20T11:23:53.618Z,11.53
2022-09-20T11:26:29.545Z,11.45
2022-09-20T11:29:02.955Z,11.53
2022-09-20T11:31:36.213Z,11.71
2022-09-20T11:34:13.882Z,11.94
2022-09-20T11:36:52.419Z,11.99
2022-09-20T11:39:24.162Z,12.15
2022-09-20T11:41:56.995Z,12.16
2022-09-20T11:44:25.536Z,12.13
2022-09-20T11:47:00.075Z,11.87
2022-09-20T11:49:46.983Z,11.96
2022-09-20T11:52:36.964Z,11.93
2022-09-20T11:55:41.529Z,11.97
2022-09-20T11:58:10.706Z,11.91
2022-09-20T12:00:43.196Z,12.16
2022-09-20T12:03:25.623Z,12.39
2022-09-20T12:06:00.436Z,12.49
2022-09-20T12:08:33.714Z,12.51
2022-09-20T12:11:06.515Z,12.39
2022-09-20T12:13:39.066Z,12.00
2022-09-20T12:16:09.362Z,11.98
2022-09-20T12:19:02.007Z,11.89
2022-09-20T12:21:30.475Z,12.12
2022-09-20T12:24:19.188Z,12.34
2022-09-20T12:26:49.844Z,12.35
2022-09-20T12:29:57.509Z,12.37
2022-09-20T12:32:55.184Z,12.52
2022-09-20T12:36:00.926Z,12.52
2022-09-20T12:38:46.756Z,12.49
2022-09-20T12:41:27.610Z,12.57
2022-09-20T12:44:00.815Z,12.60
2022-09-20T12:46:36.307Z,12.38
2022-09-20T12:49:55.552Z,12.14
2022-09-20T12:53:00.788Z,11.97
2022-09-20T12:55:52.997Z,11.74
2022-09-20T12:58:35.135Z,11.52
2022-09-20T13:01:29.295Z,11.36
2022-09-20T13:04:17.516Z,11.15
2022-09-20T13:06:46.732Z,11.12
2022-09-20T13:09:16.777Z,11.03
2022-09-20T13:11:49.035Z,10.87
2022-09-20T13:14:22.940Z,10.87
2022-09-20T13:16:55.168Z,10.83
2022-09-20T13:19:29.846Z,10.76
2022-09-20T13:22:02.630Z,10.66
2022-09-20T13:24:35.786Z,10.63
2022-09-20T13:27:09.154Z,10.66
2022-09-20T13:29:42.471Z,10.40
2022-09-20T13:32:18.878Z,10.62
2022-09-20T13:34:47.350Z,10.88
2022-09-20T13:37:23.722Z,10.97
2022-09-20T13:39:57.873Z,10.98
2022-09-20T13:42:28.941Z,11.04
2022-09-20T13:44:59.904Z,11.32
2022-09-20T13:47:30.449Z,11.45
2022-09-20T13:50:03.235Z,11.64
2022-09-20T13:52:33.148Z,11.68
2022-09-20T13:55:01.457Z,11.52
2022-09-20T13:57:32.192Z,11.91
2022-09-20T14:00:02.770Z,11.82
2022-09-20T14:02:34.003Z,12.00
2022-09-20T14:05:06.055Z,11.96
2022-09-20T14:07:37.006Z,11.79
2022-09-20T14:10:06.192Z,11.72
2022-09-20T14:12:35.988Z,11.62
2022-09-20T14:15:11.530Z,11.51
2022-09-20T14:17:40.149Z,11.40
2022-09-20T14:20:15.536Z,11.21
2022-09-20T14:22:45.438Z,11.15
2022-09-20T14:25:22.528Z,10.53
2022-09-20T14:28:06.466Z,10.94
2022-09-20T14:30:38.719Z,10.60
2022-09-20T14:33:16.148Z,10.51
2022-09-20T14:35:49.512Z,10.65
2022-09-20T14:38:20.702Z,10.68
2022-09-20T14:40:50.760Z,10.77
2022-09-20T14:43:27.021Z,10.90
2022-09-20T14:46:00.762Z,10.82
2022-09-20T14:48:36.487Z,10.73
2022-09-20T14:51:22.291Z,10.76
2022-09-20T14:53:52.741Z,10.76
2022-09-20T14:56:33.898Z,10.78
2022-09-20T14:59:07.435Z,10.44
2022-09-20T15:01:41.265Z,10.64
2022-09-20T15:04:12.407Z,10.66
2022-09-20T15:06:40.844Z,10.33
2022-09-20T15:09:12.367Z,10.60
2022-09-20T15:11:42.373Z,10.57
2022-09-20T15:14:10.687Z,10.53
2022-09-20T15:16:40.643Z,10.56
2022-09-20T15:19:11.114Z,10.40
2022-09-20T15:21:39.422Z,10.52
2022-09-20T15:24:07.924Z,10.49
2022-09-20T15:26:36.255Z,10.47
2022-09-20T15:29:04.783Z,10.46
2022-09-20T15:31:33.255Z,10.46
2022-09-20T15:34:03.078Z,10.48
2022-09-20T15:36:32.386Z,10.42
2022-09-20T15:39:01.358Z,10.52
2022-09-20T15:41:31.478Z,10.52
2022-09-20T15:44:01.779Z,10.48
2022-09-20T15:46:30.281Z,10.51
2022-09-20T15:49:01.279Z,10.53
2022-09-20T15:51:31.582Z,10.52
2022-09-20T15:54:01.526Z,10.46
2022-09-20T15:56:31.649Z,10.43
2022-09-20T15:59:01.322Z,10.32
2022-09-20T16:01:32.189Z,10.36
2022-09-20T16:04:01.701Z,10.32
2022-09-20T16:06:33.931Z,10.16
2022-09-20T16:09:02.254Z,10.29
2022-09-20T16:11:31.134Z,10.26
2022-09-20T16:14:02.010Z,10.22
2022-09-20T16:16:36.097Z,10.18
2022-09-20T16:19:20.976Z,9.96
2022-09-20T16:21:58.081Z,9.68
2022-09-20T16:24:29.484Z,9.87
2022-09-20T16:26:58.096Z,9.97
2022-09-20T16:29:27.060Z,9.95
2022-09-20T16:31:56.663Z,9.93
2022-09-20T16:34:28.539Z,9.91
2022-09-20T16:37:00.095Z,9.87
2022-09-20T16:39:29.779Z,9.81
2022-09-20T16:42:01.161Z,9.74
2022-09-20T16:44:29.547Z,9.61
2022-09-20T16:46:57.955Z,9.24
2022-09-20T16:49:29.603Z,9.54
2022-09-20T16:51:59.472Z,9.50
2022-09-20T16:54:31.720Z,9.48
2022-09-20T16:57:00.864Z,9.25
2022-09-20T16:59:29.231Z,9.38
2022-09-20T17:01:58.031Z,9.30
2022-09-20T17:04:26.477Z,9.26
2022-09-20T17:06:54.874Z,9.25
2022-09-20T17:09:24.696Z,9.26
2022-09-20T17:11:53.911Z,9.27
2022-09-20T17:14:22.596Z,9.29
2022-09-20T17:16:51.416Z,9.24
2022-09-20T17:19:21.791Z,9.29
2022-09-20T17:21:51.930Z,9.25
2022-09-20T17:24:21.280Z,9.13
2022-09-20T17:26:52.082Z,8.64
2022-09-20T17:29:21.940Z,9.15
2022-09-20T17:31:58.795Z,9.12
2022-09-20T17:34:29.619Z,8.85
2022-09-20T17:36:57.997Z,9.04
2022-09-20T17:39:26.351Z,9.00
2022-09-20T17:41:56.052Z,8.98
2022-09-20T17:44:24.483Z,8.91
2022-09-20T17:46:54.298Z,8.86
2022-09-20T17:49:24.531Z,8.81
2022-09-20T17:51:54.364Z,8.78
2022-09-20T17:54:24.720Z,8.67
2022-09-20T17:56:56.787Z,8.44
2022-09-20T17:59:25.521Z,8.62
2022-09-20T18:01:55.057Z,8.41
2022-09-20T18:04:24.702Z,8.50
2022-09-20T18:06:54.762Z,8.44
2022-09-20T18:09:25.628Z,8.38
2022-09-20T18:11:57.020Z,8.27
2022-09-20T18:14:27.618Z,8.33
2022-09-20T18:16:58.209Z,8.29
2022-09-20T18:19:33.030Z,8.27
2022-09-20T18:22:02.305Z,8.18
2022-09-20T18:24:31.779Z,8.21
2022-09-20T18:27:01.925Z,8.01
2022-09-20T18:29:33.624Z,8.13
2022-09-20T18:32:02.358Z,7.68
2022-09-20T18:34:32.727Z,7.79
2022-09-20T18:37:04.212Z,8.11
2022-09-20T18:39:33.868Z,8.11
2022-09-20T18:42:04.003Z,8.13
2022-09-20T18:44:34.459Z,8.08
2022-09-20T18:47:04.251Z,7.93
2022-09-20T18:49:33.539Z,7.84
2022-09-20T18:52:02.113Z,7.96
2022-09-20T18:54:33.726Z,7.92
2022-09-20T18:57:04.189Z,7.89
2022-09-20T18:59:32.853Z,7.68
2022-09-20T19:02:20.039Z,7.88
2022-09-20T19:05:23.786Z,7.82
2022-09-20T19:08:17.052Z,7.80
2022-09-20T19:10:50.007Z,7.77
2022-09-20T19:13:30.974Z,7.77
2022-09-20T19:16:15.627Z,7.63
2022-09-20T19:19:09.355Z,7.74
2022-09-20T19:21:46.844Z,7.56
2022-09-20T19:24:26.401Z,7.67
2022-09-20T19:26:55.106Z,7.40
2022-09-20T19:29:27.054Z,7.55
2022-09-20T19:31:57.651Z,7.55
2022-09-20T19:34:28.077Z,7.47
2022-09-20T19:37:05.643Z,7.47
2022-09-20T19:39:46.365Z,7.43
2022-09-20T19:42:21.963Z,7.36
2022-09-20T19:44:57.132Z,7.36
2022-09-20T19:47:36.910Z,7.20
2022-09-20T19:50:12.881Z,7.34
2022-09-20T19:52:41.952Z,7.31
2022-09-20T19:55:13.407Z,7.27
2022-09-20T19:57:47.080Z,7.04
2022-09-20T20:00:18.345Z,7.13
2022-09-20T20:02:47.743Z,7.22
2022-09-20T20:05:18.814Z,7.21
2022-09-20T20:07:53.928Z,7.20
2022-09-20T20:10:31.550Z,7.20
2022-09-20T20:13:28.889Z,7.21
2022-09-20T20:16:03.422Z,7.19
2022-09-20T20:18:41.699Z,7.19
2022-09-20T20:21:18.559Z,7.18
2022-09-20T20:24:09.136Z,7.17
2022-09-20T20:26:37.524Z,7.09
2022-09-20T20:29:06.069Z,7.15
2022-09-20T20:31:36.024Z,7.14
2022-09-20T20:34:04.849Z,7.12
2022-09-20T20:36:33.235Z,7.13
2022-09-20T20:39:03.073Z,7.16
2022-09-20T20:41:32.078Z,7.13
2022-09-20T20:44:00.446Z,7.10
2022-09-20T20:46:29.305Z,7.02
2022-09-20T20:48:59.464Z,7.00
2022-09-20T20:51:28.299Z,7.00
2022-09-20T20:53:58.367Z,6.98
2022-09-20T20:56:28.991Z,6.71
2022-09-20T20:59:00.955Z,6.92
2022-09-20T21:01:30.883Z,6.44
2022-09-20T21:04:01.074Z,6.84
2022-09-20T21:06:32.095Z,6.84
2022-09-20T21:09:00.547Z,6.82
2022-09-20T21:11:30.551Z,6.80
2022-09-20T21:14:01.046Z,6.78
2022-09-20T21:16:31.361Z,6.56
2022-09-20T21:19:01.455Z,6.76
2022-09-20T21:21:31.654Z,6.67
2022-09-20T21:24:02.099Z,6.74
2022-09-20T21:26:33.226Z,6.67
2022-09-20T21:29:02.896Z,6.65
2022-09-20T21:31:32.621Z,6.66
2022-09-20T21:34:03.271Z,6.42
2022-09-20T21:36:32.040Z,6.60
2022-09-20T21:39:00.392Z,6.56
2022-09-20T21:41:30.571Z,6.58
2022-09-20T21:44:00.704Z,6.56
2022-09-20T21:46:30.531Z,6.55
2022-09-20T21:48:59.894Z,6.52
2022-09-20T21:51:31.287Z,6.49
2022-09-20T21:54:01.879Z,6.51
2022-09-20T21:56:32.731Z,6.51
2022-09-20T21:59:04.086Z,6.50
2022-09-20T22:01:34.746Z,6.27
2022-09-20T22:04:07.244Z,6.44
2022-09-20T22:06:39.027Z,6.34
2022-09-20T22:09:09.261Z,6.42
2022-09-20T22:11:41.015Z,6.37
2022-09-20T22:14:10.495Z,6.36
2022-09-20T22:16:41.151Z,6.30
2022-09-20T22:19:11.020Z,6.38
2022-09-20T22:21:42.139Z,6.30
2022-09-20T22:24:12.467Z,6.18
2022-09-20T22:26:42.711Z,6.26
2022-09-20T22:29:11.635Z,6.27
2022-09-20T22:31:45.440Z,6.19
2022-09-20T22:34:15.201Z,6.10
2022-09-20T22:36:45.623Z,5.70
2022-09-20T22:39:14.494Z,6.23
2022-09-20T22:41:43.582Z,6.06
2022-09-20T22:44:12.840Z,5.71
2022-09-20T22:46:41.513Z,6.21
2022-09-20T22:49:10.887Z,5.99
2022-09-20T22:51:39.647Z,6.05
2022-09-20T22:54:11.082Z,6.20
2022-09-20T22:56:41.487Z,6.13
2022-09-20T22:59:11.851Z,6.07
2022-09-20T23:01:42.562Z,6.05
2022-09-20T23:04:13.139Z,6.04
2022-09-20T23:06:43.540Z,6.04
2022-09-20T23:09:15.807Z,6.02
2022-09-20T23:11:44.787Z,5.95
2022-09-20T23:14:14.627Z,5.86
2022-09-20T23:16:43.599Z,5.81
2022-09-20T23:19:12.831Z,5.73
2022-09-20T23:21:42.631Z,5.24
2022-09-20T23:24:17.294Z,5.66
2022-09-20T23:26:46.179Z,5.65
2022-09-20T23:29:16.667Z,5.68
2022-09-20T23:31:47.305Z,5.66
2022-09-20T23:34:17.495Z,5.67
2022-09-20T23:36:46.839Z,5.69
2022-09-20T23:39:16.968Z,5.57
2022-09-20T23:41:50.577Z,5.71
2022-09-20T23:44:19.394Z,5.70
2022-09-20T23:46:47.701Z,5.71
2022-09-20T23:49:16.501Z,5.72
2022-09-20T23:51:44.827Z,5.74
2022-09-20T23:54:13.272Z,5.68
2022-09-20T23:56:43.124Z,5.68
2022-09-20T23:59:11.536Z,5.43
